sensor_id;sensor_type;location;lat;lon;timestamp;temperature;humidity
262;DHT22;114;48.260;10.988;2024-01-11T00:01:59;-4.20;1.00
262;DHT22;114;48.260;10.988;2024-01-11T00:04:25;-4.40;1.00
262;DHT22;114;48.260;10.988;2024-01-11T00:06:51;-4.20;1.00
262;DHT22;114;48.260;10.988;2024-01-11T00:09:19;-4.40;1.00
262;DHT22;114;48.260;10.988;2024-01-11T00:11:44;-4.40;1.00
262;DHT22;114;48.260;10.988;2024-01-11T00:14:10;-4.40;1.00
262;DHT22;114;48.260;10.988;2024-01-11T00:16:36;-4.40;1.00
262;DHT22;114;48.260;10.988;2024-01-11T00:19:02;-4.20;1.00
262;DHT22;114;48.260;10.988;2024-01-11T00:21:28;-4.70;1.00
262;DHT22;114;48.260;10.988;2024-01-11T00:23:54;-4.50;1.00
262;DHT22;114;48.260;10.988;2024-01-11T00:26:20;-5.00;1.00
262;DHT22;114;48.260;10.988;2024-01-11T00:28:45;-4.90;1.00
262;DHT22;114;48.260;10.988;2024-01-11T00:31:11;-4.40;1.00
262;DHT22;114;48.260;10.988;2024-01-11T00:33:37;-4.40;1.00
262;DHT22;114;48.260;10.988;2024-01-11T00:36:03;-5.00;1.00
262;DHT22;114;48.260;10.988;2024-01-11T00:38:29;-4.40;1.00
262;DHT22;114;48.260;10.988;2024-01-11T00:40:55;-4.50;1.00
262;DHT22;114;48.260;10.988;2024-01-11T00:43:21;-4.80;1.00
262;DHT22;114;48.260;10.988;2024-01-11T00:45:47;-4.90;1.00
262;DHT22;114;48.260;10.988;2024-01-11T00:48:12;-4.50;1.00
262;DHT22;114;48.260;10.988;2024-01-11T00:50:39;-4.60;1.00
262;DHT22;114;48.260;10.988;2024-01-11T00:53:05;-4.40;1.00
262;DHT22;114;48.260;10.988;2024-01-11T00:55:31;-4.50;1.00
262;DHT22;114;48.260;10.988;2024-01-11T00:57:57;-4.40;1.00
262;DHT22;114;48.260;10.988;2024-01-11T01:00:24;-4.80;1.00
262;DHT22;114;48.260;10.988;2024-01-11T01:02:49;-4.80;1.00
262;DHT22;114;48.260;10.988;2024-01-11T01:05:16;-4.40;1.00
262;DHT22;114;48.260;10.988;2024-01-11T01:07:42;-4.30;1.00
262;DHT22;114;48.260;10.988;2024-01-11T01:10:08;-4.50;1.00
262;DHT22;114;48.260;10.988;2024-01-11T01:12:35;-5.00;1.00
262;DHT22;114;48.260;10.988;2024-01-11T01:15:01;-4.60;1.00
262;DHT22;114;48.260;10.988;2024-01-11T01:17:26;-4.60;1.00
262;DHT22;114;48.260;10.988;2024-01-11T01:19:52;-4.80;1.00
262;DHT22;114;48.260;10.988;2024-01-11T01:22:18;-5.30;1.00
262;DHT22;114;48.260;10.988;2024-01-11T01:24:43;-4.90;1.00
262;DHT22;114;48.260;10.988;2024-01-11T01:27:09;-5.20;1.00
262;DHT22;114;48.260;10.988;2024-01-11T01:29:35;-5.10;1.00
262;DHT22;114;48.260;10.988;2024-01-11T01:32:01;-5.10;1.00
262;DHT22;114;48.260;10.988;2024-01-11T01:34:28;-4.70;1.00
262;DHT22;114;48.260;10.988;2024-01-11T01:36:54;-4.60;1.00
262;DHT22;114;48.260;10.988;2024-01-11T01:39:20;-5.30;1.00
262;DHT22;114;48.260;10.988;2024-01-11T01:41:45;-4.80;1.00
262;DHT22;114;48.260;10.988;2024-01-11T01:44:11;-4.80;1.00
262;DHT22;114;48.260;10.988;2024-01-11T01:46:37;-4.50;1.00
262;DHT22;114;48.260;10.988;2024-01-11T01:49:03;-4.80;1.00
262;DHT22;114;48.260;10.988;2024-01-11T01:51:31;-4.70;1.00
262;DHT22;114;48.260;10.988;2024-01-11T01:54:00;-4.50;1.00
262;DHT22;114;48.260;10.988;2024-01-11T01:56:27;-4.60;1.00
262;DHT22;114;48.260;10.988;2024-01-11T01:58:54;-4.50;1.00
262;DHT22;114;48.260;10.988;2024-01-11T02:01:21;-4.40;1.00
262;DHT22;114;48.260;10.988;2024-01-11T02:03:50;-4.60;1.00
262;DHT22;114;48.260;10.988;2024-01-11T02:06:18;-4.60;1.00
262;DHT22;114;48.260;10.988;2024-01-11T02:08:48;-4.60;1.00
262;DHT22;114;48.260;10.988;2024-01-11T02:11:14;-5.10;1.00
262;DHT22;114;48.260;10.988;2024-01-11T02:13:41;-4.60;1.00
262;DHT22;114;48.260;10.988;2024-01-11T02:16:06;-5.10;1.00
262;DHT22;114;48.260;10.988;2024-01-11T02:18:32;-4.70;1.00
262;DHT22;114;48.260;10.988;2024-01-11T02:20:58;-4.70;1.00
262;DHT22;114;48.260;10.988;2024-01-11T02:23:24;-4.70;1.00
262;DHT22;114;48.260;10.988;2024-01-11T02:25:51;-5.30;1.00
262;DHT22;114;48.260;10.988;2024-01-11T02:28:17;-5.00;1.00
262;DHT22;114;48.260;10.988;2024-01-11T02:30:43;-4.90;1.00
262;DHT22;114;48.260;10.988;2024-01-11T02:33:09;-5.20;1.00
262;DHT22;114;48.260;10.988;2024-01-11T02:35:35;-4.70;1.00
262;DHT22;114;48.260;10.988;2024-01-11T02:38:04;-5.10;1.00
262;DHT22;114;48.260;10.988;2024-01-11T02:40:31;-4.80;1.00
262;DHT22;114;48.260;10.988;2024-01-11T02:42:57;-4.80;1.00
262;DHT22;114;48.260;10.988;2024-01-11T02:45:23;-4.80;1.00
262;DHT22;114;48.260;10.988;2024-01-11T02:47:49;-4.80;1.00
262;DHT22;114;48.260;10.988;2024-01-11T02:50:15;-4.80;1.00
262;DHT22;114;48.260;10.988;2024-01-11T02:52:41;-4.80;1.00
262;DHT22;114;48.260;10.988;2024-01-11T02:55:07;-5.20;1.00
262;DHT22;114;48.260;10.988;2024-01-11T02:57:33;-4.60;1.00
262;DHT22;114;48.260;10.988;2024-01-11T02:59:58;-5.30;1.00
262;DHT22;114;48.260;10.988;2024-01-11T03:02:24;-4.90;1.00
262;DHT22;114;48.260;10.988;2024-01-11T03:04:50;-5.00;1.00
262;DHT22;114;48.260;10.988;2024-01-11T03:07:15;-5.20;1.00
262;DHT22;114;48.260;10.988;2024-01-11T03:09:41;-4.80;1.00
262;DHT22;114;48.260;10.988;2024-01-11T03:12:07;-4.70;1.00
262;DHT22;114;48.260;10.988;2024-01-11T03:14:33;-4.60;1.00
262;DHT22;114;48.260;10.988;2024-01-11T03:17:00;-4.80;1.00
262;DHT22;114;48.260;10.988;2024-01-11T03:19:26;-5.10;1.00
262;DHT22;114;48.260;10.988;2024-01-11T03:21:53;-4.60;1.00
262;DHT22;114;48.260;10.988;2024-01-11T03:24:18;-4.70;1.00
262;DHT22;114;48.260;10.988;2024-01-11T03:26:44;-5.30;1.00
262;DHT22;114;48.260;10.988;2024-01-11T03:29:09;-4.90;1.00
262;DHT22;114;48.260;10.988;2024-01-11T03:31:35;-4.80;1.00
262;DHT22;114;48.260;10.988;2024-01-11T03:34:02;-4.80;1.00
262;DHT22;114;48.260;10.988;2024-01-11T03:36:30;-4.70;1.00
262;DHT22;114;48.260;10.988;2024-01-11T03:38:55;-5.20;1.00
262;DHT22;114;48.260;10.988;2024-01-11T03:41:21;-5.20;1.00
262;DHT22;114;48.260;10.988;2024-01-11T03:43:47;-4.80;1.00
262;DHT22;114;48.260;10.988;2024-01-11T03:46:13;-4.80;1.00
262;DHT22;114;48.260;10.988;2024-01-11T03:48:39;-4.70;1.00
262;DHT22;114;48.260;10.988;2024-01-11T03:51:05;-5.20;1.00
262;DHT22;114;48.260;10.988;2024-01-11T03:53:34;-4.70;1.00
262;DHT22;114;48.260;10.988;2024-01-11T03:56:00;-4.80;1.00
262;DHT22;114;48.260;10.988;2024-01-11T03:58:25;-5.30;1.00
262;DHT22;114;48.260;10.988;2024-01-11T04:00:52;-5.20;1.00
262;DHT22;114;48.260;10.988;2024-01-11T04:03:17;-5.30;1.00
262;DHT22;114;48.260;10.988;2024-01-11T04:05:43;-5.30;1.00
262;DHT22;114;48.260;10.988;2024-01-11T04:08:09;-5.20;1.00
262;DHT22;114;48.260;10.988;2024-01-11T04:10:35;-4.70;1.00
262;DHT22;114;48.260;10.988;2024-01-11T04:13:00;-5.20;1.00
262;DHT22;114;48.260;10.988;2024-01-11T04:15:26;-4.40;1.00
262;DHT22;114;48.260;10.988;2024-01-11T04:17:52;-4.90;1.00
262;DHT22;114;48.260;10.988;2024-01-11T04:20:18;-4.60;1.00
262;DHT22;114;48.260;10.988;2024-01-11T04:22:43;-4.70;1.00
262;DHT22;114;48.260;10.988;2024-01-11T04:25:09;-4.60;1.00
262;DHT22;114;48.260;10.988;2024-01-11T04:27:35;-4.60;1.00
262;DHT22;114;48.260;10.988;2024-01-11T04:30:02;-4.50;1.00
262;DHT22;114;48.260;10.988;2024-01-11T04:32:28;-4.60;1.00
262;DHT22;114;48.260;10.988;2024-01-11T04:34:55;-4.40;1.00
262;DHT22;114;48.260;10.988;2024-01-11T04:37:21;-4.70;1.00
262;DHT22;114;48.260;10.988;2024-01-11T04:39:47;-4.70;1.00
262;DHT22;114;48.260;10.988;2024-01-11T04:42:13;-4.70;1.00
262;DHT22;114;48.260;10.988;2024-01-11T04:44:39;-5.10;1.00
262;DHT22;114;48.260;10.988;2024-01-11T04:47:05;-5.10;1.00
262;DHT22;114;48.260;10.988;2024-01-11T04:49:31;-4.80;1.00
262;DHT22;114;48.260;10.988;2024-01-11T04:51:57;-5.20;1.00
262;DHT22;114;48.260;10.988;2024-01-11T04:54:23;-4.70;1.00
262;DHT22;114;48.260;10.988;2024-01-11T04:56:48;-4.70;1.00
262;DHT22;114;48.260;10.988;2024-01-11T04:59:15;-4.70;1.00
262;DHT22;114;48.260;10.988;2024-01-11T05:01:40;-5.30;1.00
262;DHT22;114;48.260;10.988;2024-01-11T05:04:07;-5.30;1.00
262;DHT22;114;48.260;10.988;2024-01-11T05:06:33;-5.00;1.00
262;DHT22;114;48.260;10.988;2024-01-11T05:08:59;-5.00;1.00
262;DHT22;114;48.260;10.988;2024-01-11T05:11:25;-5.30;1.00
262;DHT22;114;48.260;10.988;2024-01-11T05:13:52;-5.60;1.00
262;DHT22;114;48.260;10.988;2024-01-11T05:16:25;-4.90;1.00
262;DHT22;114;48.260;10.988;2024-01-11T05:18:52;-4.80;1.00
262;DHT22;114;48.260;10.988;2024-01-11T05:21:18;-5.00;1.00
262;DHT22;114;48.260;10.988;2024-01-11T05:23:44;-5.40;1.00
262;DHT22;114;48.260;10.988;2024-01-11T05:26:12;-5.40;1.00
262;DHT22;114;48.260;10.988;2024-01-11T05:28:38;-5.40;1.00
262;DHT22;114;48.260;10.988;2024-01-11T05:31:11;-5.30;1.00
262;DHT22;114;48.260;10.988;2024-01-11T05:33:39;-5.20;1.00
262;DHT22;114;48.260;10.988;2024-01-11T05:36:05;-5.00;1.00
262;DHT22;114;48.260;10.988;2024-01-11T05:38:31;-5.10;1.00
262;DHT22;114;48.260;10.988;2024-01-11T05:40:57;-5.10;1.00
262;DHT22;114;48.260;10.988;2024-01-11T05:43:23;-5.00;1.00
262;DHT22;114;48.260;10.988;2024-01-11T05:45:49;-5.10;1.00
262;DHT22;114;48.260;10.988;2024-01-11T05:48:16;-5.10;1.00
262;DHT22;114;48.260;10.988;2024-01-11T05:50:42;-5.70;1.00
262;DHT22;114;48.260;10.988;2024-01-11T05:53:08;-5.30;1.00
262;DHT22;114;48.260;10.988;2024-01-11T05:55:33;-5.20;1.00
262;DHT22;114;48.260;10.988;2024-01-11T05:57:59;-5.20;1.00
262;DHT22;114;48.260;10.988;2024-01-11T06:00:25;-5.70;1.00
262;DHT22;114;48.260;10.988;2024-01-11T06:02:51;-4.90;1.00
262;DHT22;114;48.260;10.988;2024-01-11T06:05:16;-5.10;1.00
262;DHT22;114;48.260;10.988;2024-01-11T06:07:42;-5.20;1.00
262;DHT22;114;48.260;10.988;2024-01-11T06:10:08;-5.20;1.00
262;DHT22;114;48.260;10.988;2024-01-11T06:12:34;-5.10;1.00
262;DHT22;114;48.260;10.988;2024-01-11T06:15:00;-4.90;1.00
262;DHT22;114;48.260;10.988;2024-01-11T06:17:26;-5.10;1.00
262;DHT22;114;48.260;10.988;2024-01-11T06:19:53;-4.70;1.00
262;DHT22;114;48.260;10.988;2024-01-11T06:22:20;-4.80;1.00
262;DHT22;114;48.260;10.988;2024-01-11T06:24:45;-5.20;1.00
262;DHT22;114;48.260;10.988;2024-01-11T06:27:11;-4.30;1.00
262;DHT22;114;48.260;10.988;2024-01-11T06:29:37;-4.70;1.00
262;DHT22;114;48.260;10.988;2024-01-11T06:32:02;-5.20;1.00
262;DHT22;114;48.260;10.988;2024-01-11T06:34:28;-5.10;1.00
262;DHT22;114;48.260;10.988;2024-01-11T06:36:54;-5.70;1.00
262;DHT22;114;48.260;10.988;2024-01-11T06:39:20;-5.40;1.00
262;DHT22;114;48.260;10.988;2024-01-11T06:41:46;-5.30;1.00
262;DHT22;114;48.260;10.988;2024-01-11T06:44:12;-5.10;1.00
262;DHT22;114;48.260;10.988;2024-01-11T06:46:37;-5.60;1.00
262;DHT22;114;48.260;10.988;2024-01-11T06:49:07;-5.60;1.00
262;DHT22;114;48.260;10.988;2024-01-11T06:51:33;-5.70;1.00
262;DHT22;114;48.260;10.988;2024-01-11T06:53:59;-5.80;1.00
262;DHT22;114;48.260;10.988;2024-01-11T06:56:26;-5.10;1.00
262;DHT22;114;48.260;10.988;2024-01-11T06:58:52;-5.30;1.00
262;DHT22;114;48.260;10.988;2024-01-11T07:01:18;-5.50;1.00
262;DHT22;114;48.260;10.988;2024-01-11T07:03:44;-5.70;1.00
262;DHT22;114;48.260;10.988;2024-01-11T07:06:10;-5.60;1.00
262;DHT22;114;48.260;10.988;2024-01-11T07:08:35;-5.20;1.00
262;DHT22;114;48.260;10.988;2024-01-11T07:11:01;-5.70;1.00
262;DHT22;114;48.260;10.988;2024-01-11T07:13:31;-5.30;1.00
262;DHT22;114;48.260;10.988;2024-01-11T07:15:57;-5.30;1.00
262;DHT22;114;48.260;10.988;2024-01-11T07:18:24;-5.50;1.00
262;DHT22;114;48.260;10.988;2024-01-11T07:20:50;-5.20;1.00
262;DHT22;114;48.260;10.988;2024-01-11T07:23:16;-5.30;1.00
262;DHT22;114;48.260;10.988;2024-01-11T07:25:42;-5.70;1.00
262;DHT22;114;48.260;10.988;2024-01-11T07:28:07;-5.40;1.00
262;DHT22;114;48.260;10.988;2024-01-11T07:30:34;-5.30;1.00
262;DHT22;114;48.260;10.988;2024-01-11T07:32:59;-5.20;1.00
262;DHT22;114;48.260;10.988;2024-01-11T07:35:25;-5.70;1.00
262;DHT22;114;48.260;10.988;2024-01-11T07:37:51;-5.10;1.00
262;DHT22;114;48.260;10.988;2024-01-11T07:40:16;-4.90;1.00
262;DHT22;114;48.260;10.988;2024-01-11T07:42:43;-5.40;1.00
262;DHT22;114;48.260;10.988;2024-01-11T07:45:09;-4.90;1.00
262;DHT22;114;48.260;10.988;2024-01-11T07:47:38;-5.20;1.00
262;DHT22;114;48.260;10.988;2024-01-11T07:50:05;-5.00;1.00
262;DHT22;114;48.260;10.988;2024-01-11T07:52:32;-5.10;1.00
262;DHT22;114;48.260;10.988;2024-01-11T07:54:58;-5.50;1.00
262;DHT22;114;48.260;10.988;2024-01-11T07:57:34;-5.40;1.00
262;DHT22;114;48.260;10.988;2024-01-11T08:00:02;-4.90;1.00
262;DHT22;114;48.260;10.988;2024-01-11T08:02:29;-4.80;1.00
262;DHT22;114;48.260;10.988;2024-01-11T08:04:55;-5.10;1.00
262;DHT22;114;48.260;10.988;2024-01-11T08:07:21;-4.80;1.00
262;DHT22;114;48.260;10.988;2024-01-11T08:09:47;-4.80;1.00
262;DHT22;114;48.260;10.988;2024-01-11T08:12:16;-5.00;1.00
262;DHT22;114;48.260;10.988;2024-01-11T08:14:42;-4.80;1.00
262;DHT22;114;48.260;10.988;2024-01-11T08:17:08;-4.70;1.00
262;DHT22;114;48.260;10.988;2024-01-11T08:19:34;-4.50;1.00
262;DHT22;114;48.260;10.988;2024-01-11T08:22:00;-4.40;1.00
262;DHT22;114;48.260;10.988;2024-01-11T08:24:26;-4.40;1.00
262;DHT22;114;48.260;10.988;2024-01-11T08:26:52;-4.60;1.00
262;DHT22;114;48.260;10.988;2024-01-11T08:29:18;-4.50;1.00
262;DHT22;114;48.260;10.988;2024-01-11T08:31:47;-4.90;1.00
262;DHT22;114;48.260;10.988;2024-01-11T08:34:14;-4.40;1.00
262;DHT22;114;48.260;10.988;2024-01-11T08:36:40;-4.90;1.00
262;DHT22;114;48.260;10.988;2024-01-11T08:39:06;-4.90;1.00
262;DHT22;114;48.260;10.988;2024-01-11T08:41:32;-4.60;1.00
262;DHT22;114;48.260;10.988;2024-01-11T08:43:58;-4.80;1.00
262;DHT22;114;48.260;10.988;2024-01-11T08:46:27;-5.00;1.00
262;DHT22;114;48.260;10.988;2024-01-11T08:48:54;-5.00;1.00
262;DHT22;114;48.260;10.988;2024-01-11T08:51:21;-5.30;1.00
262;DHT22;114;48.260;10.988;2024-01-11T08:53:47;-5.10;1.00
262;DHT22;114;48.260;10.988;2024-01-11T08:56:12;-5.00;1.00
262;DHT22;114;48.260;10.988;2024-01-11T08:58:40;-4.80;1.00
262;DHT22;114;48.260;10.988;2024-01-11T09:01:06;-5.00;1.00
262;DHT22;114;48.260;10.988;2024-01-11T09:03:34;-4.80;1.00
262;DHT22;114;48.260;10.988;2024-01-11T09:05:59;-4.80;1.00
262;DHT22;114;48.260;10.988;2024-01-11T09:08:26;-5.30;1.00
262;DHT22;114;48.260;10.988;2024-01-11T09:10:51;-4.80;1.00
262;DHT22;114;48.260;10.988;2024-01-11T09:13:18;-4.60;1.00
262;DHT22;114;48.260;10.988;2024-01-11T09:15:44;-4.90;1.00
262;DHT22;114;48.260;10.988;2024-01-11T09:18:10;-4.90;1.00
262;DHT22;114;48.260;10.988;2024-01-11T09:20:36;-5.00;1.00
262;DHT22;114;48.260;10.988;2024-01-11T09:23:02;-5.30;1.00
262;DHT22;114;48.260;10.988;2024-01-11T09:25:32;-4.50;1.00
262;DHT22;114;48.260;10.988;2024-01-11T09:27:57;-4.50;1.00
262;DHT22;114;48.260;10.988;2024-01-11T09:30:23;-4.90;1.00
262;DHT22;114;48.260;10.988;2024-01-11T09:32:48;-4.20;1.00
262;DHT22;114;48.260;10.988;2024-01-11T09:35:14;-4.40;1.00
262;DHT22;114;48.260;10.988;2024-01-11T09:37:40;-4.40;1.00
262;DHT22;114;48.260;10.988;2024-01-11T09:40:06;-4.50;1.00
262;DHT22;114;48.260;10.988;2024-01-11T09:42:39;-4.50;1.00
262;DHT22;114;48.260;10.988;2024-01-11T09:45:15;-4.80;1.00
262;DHT22;114;48.260;10.988;2024-01-11T09:47:44;-5.00;1.00
262;DHT22;114;48.260;10.988;2024-01-11T09:50:11;-4.20;1.00
262;DHT22;114;48.260;10.988;2024-01-11T09:52:46;-4.20;1.00
262;DHT22;114;48.260;10.988;2024-01-11T09:55:13;-4.40;1.00
262;DHT22;114;48.260;10.988;2024-01-11T09:57:43;-4.00;1.00
262;DHT22;114;48.260;10.988;2024-01-11T10:00:19;-3.80;1.00
262;DHT22;114;48.260;10.988;2024-01-11T10:02:46;-4.00;1.00
262;DHT22;114;48.260;10.988;2024-01-11T10:05:12;-3.70;1.00
262;DHT22;114;48.260;10.988;2024-01-11T10:07:40;-3.90;1.00
262;DHT22;114;48.260;10.988;2024-01-11T10:10:06;-3.70;1.00
262;DHT22;114;48.260;10.988;2024-01-11T10:12:35;-3.40;1.00
262;DHT22;114;48.260;10.988;2024-01-11T10:15:09;-3.20;1.00
262;DHT22;114;48.260;10.988;2024-01-11T10:17:36;-3.00;1.00
262;DHT22;114;48.260;10.988;2024-01-11T10:20:02;-3.20;1.00
262;DHT22;114;48.260;10.988;2024-01-11T10:22:28;-3.10;1.00
262;DHT22;114;48.260;10.988;2024-01-11T10:25:13;-3.30;1.00
262;DHT22;114;48.260;10.988;2024-01-11T10:27:43;-3.40;1.00
262;DHT22;114;48.260;10.988;2024-01-11T10:30:14;-3.80;1.00
262;DHT22;114;48.260;10.988;2024-01-11T10:32:42;-3.30;1.00
262;DHT22;114;48.260;10.988;2024-01-11T10:35:08;-3.30;1.00
262;DHT22;114;48.260;10.988;2024-01-11T10:37:33;-3.20;1.00
262;DHT22;114;48.260;10.988;2024-01-11T10:40:04;-3.80;1.00
262;DHT22;114;48.260;10.988;2024-01-11T10:42:36;-3.30;1.00
262;DHT22;114;48.260;10.988;2024-01-11T10:45:09;-3.60;1.00
262;DHT22;114;48.260;10.988;2024-01-11T10:47:37;-2.90;1.00
262;DHT22;114;48.260;10.988;2024-01-11T10:50:06;-2.90;1.00
262;DHT22;114;48.260;10.988;2024-01-11T10:52:36;-3.00;1.00
262;DHT22;114;48.260;10.988;2024-01-11T10:55:08;-3.30;1.00
262;DHT22;114;48.260;10.988;2024-01-11T10:57:34;-3.60;1.00
262;DHT22;114;48.260;10.988;2024-01-11T11:00:01;-3.60;1.00
262;DHT22;114;48.260;10.988;2024-01-11T11:02:29;-3.30;1.00
262;DHT22;114;48.260;10.988;2024-01-11T11:04:56;-3.80;1.00
262;DHT22;114;48.260;10.988;2024-01-11T11:07:23;-3.20;1.00
262;DHT22;114;48.260;10.988;2024-01-11T11:09:49;-3.60;1.00
262;DHT22;114;48.260;10.988;2024-01-11T11:12:17;-3.00;1.00
262;DHT22;114;48.260;10.988;2024-01-11T11:14:44;-3.00;1.00
262;DHT22;114;48.260;10.988;2024-01-11T11:17:14;-2.80;1.00
262;DHT22;114;48.260;10.988;2024-01-11T11:19:40;-2.60;1.00
262;DHT22;114;48.260;10.988;2024-01-11T11:22:06;-3.10;1.00
262;DHT22;114;48.260;10.988;2024-01-11T11:24:34;-3.00;1.00
262;DHT22;114;48.260;10.988;2024-01-11T11:27:00;-2.70;1.00
262;DHT22;114;48.260;10.988;2024-01-11T11:29:26;-3.00;1.00
262;DHT22;114;48.260;10.988;2024-01-11T11:31:52;-2.90;1.00
262;DHT22;114;48.260;10.988;2024-01-11T11:34:19;-2.90;1.00
262;DHT22;114;48.260;10.988;2024-01-11T11:36:50;-2.60;1.00
262;DHT22;114;48.260;10.988;2024-01-11T11:39:20;-2.60;1.00
262;DHT22;114;48.260;10.988;2024-01-11T11:41:45;-3.30;1.00
262;DHT22;114;48.260;10.988;2024-01-11T11:44:13;-2.70;1.00
262;DHT22;114;48.260;10.988;2024-01-11T11:46:41;-2.60;1.00
262;DHT22;114;48.260;10.988;2024-01-11T11:49:07;-2.70;1.00
262;DHT22;114;48.260;10.988;2024-01-11T11:51:33;-3.10;1.00
262;DHT22;114;48.260;10.988;2024-01-11T11:54:02;-2.60;1.00
262;DHT22;114;48.260;10.988;2024-01-11T11:56:28;-2.70;1.00
262;DHT22;114;48.260;10.988;2024-01-11T11:58:53;-2.60;1.00
262;DHT22;114;48.260;10.988;2024-01-11T12:01:20;-2.70;1.00
262;DHT22;114;48.260;10.988;2024-01-11T12:03:46;-2.90;1.00
262;DHT22;114;48.260;10.988;2024-01-11T12:06:17;-2.40;1.00
262;DHT22;114;48.260;10.988;2024-01-11T12:08:43;-2.60;1.00
262;DHT22;114;48.260;10.988;2024-01-11T12:11:13;-2.00;1.00
262;DHT22;114;48.260;10.988;2024-01-11T12:13:40;-2.20;1.00
262;DHT22;114;48.260;10.988;2024-01-11T12:16:06;-2.00;1.00
262;DHT22;114;48.260;10.988;2024-01-11T12:18:31;-2.10;1.00
262;DHT22;114;48.260;10.988;2024-01-11T12:20:57;-2.40;1.00
262;DHT22;114;48.260;10.988;2024-01-11T12:23:23;-2.10;1.00
262;DHT22;114;48.260;10.988;2024-01-11T12:25:49;-2.10;1.00
262;DHT22;114;48.260;10.988;2024-01-11T12:28:16;-2.20;1.00
262;DHT22;114;48.260;10.988;2024-01-11T12:30:42;-2.50;1.00
262;DHT22;114;48.260;10.988;2024-01-11T12:33:08;-2.30;1.00
262;DHT22;114;48.260;10.988;2024-01-11T12:35:34;-2.70;1.00
262;DHT22;114;48.260;10.988;2024-01-11T12:38:02;-3.00;1.00
262;DHT22;114;48.260;10.988;2024-01-11T12:40:35;-2.60;1.00
262;DHT22;114;48.260;10.988;2024-01-11T12:43:03;-2.70;1.00
262;DHT22;114;48.260;10.988;2024-01-11T12:45:31;-2.10;1.00
262;DHT22;114;48.260;10.988;2024-01-11T12:47:59;-2.30;1.00
262;DHT22;114;48.260;10.988;2024-01-11T12:50:26;-2.60;1.00
262;DHT22;114;48.260;10.988;2024-01-11T12:53:14;-2.60;1.00
262;DHT22;114;48.260;10.988;2024-01-11T12:55:47;-2.20;1.00
262;DHT22;114;48.260;10.988;2024-01-11T12:58:13;-2.60;1.00
262;DHT22;114;48.260;10.988;2024-01-11T13:00:44;-2.50;1.00
262;DHT22;114;48.260;10.988;2024-01-11T13:03:10;-2.80;1.00
262;DHT22;114;48.260;10.988;2024-01-11T13:05:36;-2.60;1.00
262;DHT22;114;48.260;10.988;2024-01-11T13:08:02;-2.50;1.00
262;DHT22;114;48.260;10.988;2024-01-11T13:10:29;-2.70;1.00
262;DHT22;114;48.260;10.988;2024-01-11T13:12:55;-2.80;1.00
262;DHT22;114;48.260;10.988;2024-01-11T13:15:21;-2.20;1.00
262;DHT22;114;48.260;10.988;2024-01-11T13:17:48;-2.50;1.00
262;DHT22;114;48.260;10.988;2024-01-11T13:20:14;-2.00;1.00
262;DHT22;114;48.260;10.988;2024-01-11T13:22:40;-2.00;1.00
262;DHT22;114;48.260;10.988;2024-01-11T13:25:06;-2.30;1.00
262;DHT22;114;48.260;10.988;2024-01-11T13:27:32;-2.10;1.00
262;DHT22;114;48.260;10.988;2024-01-11T13:29:57;-2.70;1.00
262;DHT22;114;48.260;10.988;2024-01-11T13:32:24;-1.90;1.00
262;DHT22;114;48.260;10.988;2024-01-11T13:34:49;-1.70;1.00
262;DHT22;114;48.260;10.988;2024-01-11T13:37:18;-2.00;1.00
262;DHT22;114;48.260;10.988;2024-01-11T13:39:44;-2.00;1.00
262;DHT22;114;48.260;10.988;2024-01-11T13:42:10;-2.30;1.00
262;DHT22;114;48.260;10.988;2024-01-11T13:44:36;-2.60;1.00
262;DHT22;114;48.260;10.988;2024-01-11T13:47:02;-3.00;1.00
262;DHT22;114;48.260;10.988;2024-01-11T13:49:28;-2.60;1.00
262;DHT22;114;48.260;10.988;2024-01-11T13:51:54;-2.80;1.00
262;DHT22;114;48.260;10.988;2024-01-11T13:54:19;-3.00;1.00
262;DHT22;114;48.260;10.988;2024-01-11T13:56:47;-3.00;1.00
262;DHT22;114;48.260;10.988;2024-01-11T13:59:13;-2.10;1.00
262;DHT22;114;48.260;10.988;2024-01-11T14:01:38;-2.40;1.00
262;DHT22;114;48.260;10.988;2024-01-11T14:04:04;-2.70;1.00
262;DHT22;114;48.260;10.988;2024-01-11T14:06:30;-2.30;1.00
262;DHT22;114;48.260;10.988;2024-01-11T14:08:55;-3.20;1.00
262;DHT22;114;48.260;10.988;2024-01-11T14:11:21;-3.60;1.00
262;DHT22;114;48.260;10.988;2024-01-11T14:13:47;-3.10;1.00
262;DHT22;114;48.260;10.988;2024-01-11T14:16:13;-3.00;1.00
262;DHT22;114;48.260;10.988;2024-01-11T14:18:41;-3.00;1.00
262;DHT22;114;48.260;10.988;2024-01-11T14:21:06;-3.30;1.00
262;DHT22;114;48.260;10.988;2024-01-11T14:23:32;-3.10;1.00
262;DHT22;114;48.260;10.988;2024-01-11T14:25:58;-3.10;1.00
262;DHT22;114;48.260;10.988;2024-01-11T14:28:24;-3.10;1.00
262;DHT22;114;48.260;10.988;2024-01-11T14:30:49;-3.60;1.00
262;DHT22;114;48.260;10.988;2024-01-11T14:33:15;-3.30;1.00
262;DHT22;114;48.260;10.988;2024-01-11T14:35:41;-3.10;1.00
262;DHT22;114;48.260;10.988;2024-01-11T14:38:06;-3.10;1.00
262;DHT22;114;48.260;10.988;2024-01-11T14:40:32;-3.00;1.00
262;DHT22;114;48.260;10.988;2024-01-11T14:42:58;-2.80;1.00
262;DHT22;114;48.260;10.988;2024-01-11T14:45:23;-3.00;1.00
262;DHT22;114;48.260;10.988;2024-01-11T14:47:49;-3.50;1.00
262;DHT22;114;48.260;10.988;2024-01-11T14:50:14;-2.70;1.00
262;DHT22;114;48.260;10.988;2024-01-11T14:52:40;-2.90;1.00
262;DHT22;114;48.260;10.988;2024-01-11T14:55:07;-3.10;1.00
262;DHT22;114;48.260;10.988;2024-01-11T14:57:35;-3.00;1.00
262;DHT22;114;48.260;10.988;2024-01-11T15:00:01;-3.60;1.00
262;DHT22;114;48.260;10.988;2024-01-11T15:02:26;-3.20;1.00
262;DHT22;114;48.260;10.988;2024-01-11T15:04:53;-3.30;1.00
262;DHT22;114;48.260;10.988;2024-01-11T15:07:18;-3.60;1.00
262;DHT22;114;48.260;10.988;2024-01-11T15:09:45;-3.70;1.00
262;DHT22;114;48.260;10.988;2024-01-11T15:12:11;-3.20;1.00
262;DHT22;114;48.260;10.988;2024-01-11T15:14:36;-3.50;1.00
262;DHT22;114;48.260;10.988;2024-01-11T15:17:02;-3.30;1.00
262;DHT22;114;48.260;10.988;2024-01-11T15:19:29;-3.10;1.00
262;DHT22;114;48.260;10.988;2024-01-11T15:21:54;-3.70;1.00
262;DHT22;114;48.260;10.988;2024-01-11T15:24:20;-3.50;1.00
262;DHT22;114;48.260;10.988;2024-01-11T15:26:46;-3.40;1.00
262;DHT22;114;48.260;10.988;2024-01-11T15:29:14;-2.80;1.00
262;DHT22;114;48.260;10.988;2024-01-11T15:31:40;-3.10;1.00
262;DHT22;114;48.260;10.988;2024-01-11T15:34:08;-3.40;1.00
262;DHT22;114;48.260;10.988;2024-01-11T15:36:33;-3.00;1.00
262;DHT22;114;48.260;10.988;2024-01-11T15:39:00;-3.20;1.00
262;DHT22;114;48.260;10.988;2024-01-11T15:41:26;-3.00;1.00
262;DHT22;114;48.260;10.988;2024-01-11T15:43:51;-3.30;1.00
262;DHT22;114;48.260;10.988;2024-01-11T15:46:17;-3.30;1.00
262;DHT22;114;48.260;10.988;2024-01-11T15:48:43;-3.30;1.00
262;DHT22;114;48.260;10.988;2024-01-11T15:51:08;-3.20;1.00
262;DHT22;114;48.260;10.988;2024-01-11T15:53:34;-3.80;1.00
262;DHT22;114;48.260;10.988;2024-01-11T15:56:00;-3.80;1.00
262;DHT22;114;48.260;10.988;2024-01-11T15:58:26;-3.40;1.00
262;DHT22;114;48.260;10.988;2024-01-11T16:00:51;-3.40;1.00
262;DHT22;114;48.260;10.988;2024-01-11T16:03:17;-3.70;1.00
262;DHT22;114;48.260;10.988;2024-01-11T16:05:43;-4.10;1.00
262;DHT22;114;48.260;10.988;2024-01-11T16:08:09;-4.00;1.00
262;DHT22;114;48.260;10.988;2024-01-11T16:10:34;-3.60;1.00
262;DHT22;114;48.260;10.988;2024-01-11T16:13:00;-3.50;1.00
262;DHT22;114;48.260;10.988;2024-01-11T16:15:26;-3.60;1.00
262;DHT22;114;48.260;10.988;2024-01-11T16:17:51;-4.20;1.00
262;DHT22;114;48.260;10.988;2024-01-11T16:20:18;-4.00;1.00
262;DHT22;114;48.260;10.988;2024-01-11T16:22:44;-3.60;1.00
262;DHT22;114;48.260;10.988;2024-01-11T16:25:10;-4.10;1.00
262;DHT22;114;48.260;10.988;2024-01-11T16:27:35;-3.80;1.00
262;DHT22;114;48.260;10.988;2024-01-11T16:30:01;-3.70;1.00